sensor_id;sensor_type;location;lat;lon;timestamp;pressure;altitude;pressure_sealevel;temperature;humidity
51239;BME280;38154;47.548;18.828;2023-03-16T00:01:19;98734.00;;;1.03;80.71
51239;BME280;38154;47.548;18.828;2023-03-16T00:03:45;98744.50;;;1.09;80.53
51239;BME280;38154;47.548;18.828;2023-03-16T00:06:11;98740.06;;;1.05;80.60
51239;BME280;38154;47.548;18.828;2023-03-16T00:08:37;98739.38;;;1.09;80.88
51239;BME280;38154;47.548;18.828;2023-03-16T00:11:04;98749.66;;;1.09;81.81
51239;BME280;38154;47.548;18.828;2023-03-16T00:13:30;98745.97;;;1.03;81.11
51239;BME280;38154;47.548;18.828;2023-03-16T00:15:57;98746.72;;;1.00;80.80
51239;BME280;38154;47.548;18.828;2023-03-16T00:18:25;98752.94;;;1.07;82.03
51239;BME280;38154;47.548;18.828;2023-03-16T00:20:57;98759.00;;;1.07;81.01
51239;BME280;38154;47.548;18.828;2023-03-16T00:23:24;98752.84;;;1.04;81.56
51239;BME280;38154;47.548;18.828;2023-03-16T00:25:57;98747.34;;;0.95;82.62
51239;BME280;38154;47.548;18.828;2023-03-16T00:28:25;98754.94;;;0.91;82.26
51239;BME280;38154;47.548;18.828;2023-03-16T00:30:51;98752.31;;;0.90;82.97
51239;BME280;38154;47.548;18.828;2023-03-16T00:33:17;98753.06;;;0.87;85.11
51239;BME280;38154;47.548;18.828;2023-03-16T00:35:47;98753.69;;;0.82;83.98
51239;BME280;38154;47.548;18.828;2023-03-16T00:38:31;98756.19;;;0.80;84.85
51239;BME280;38154;47.548;18.828;2023-03-16T00:41:00;98758.59;;;0.76;84.61
51239;BME280;38154;47.548;18.828;2023-03-16T00:43:32;98766.25;;;0.74;84.62
51239;BME280;38154;47.548;18.828;2023-03-16T00:46:11;98766.56;;;0.61;85.31
51239;BME280;38154;47.548;18.828;2023-03-16T00:48:39;98768.72;;;0.51;86.91
51239;BME280;38154;47.548;18.828;2023-03-16T00:51:10;98768.97;;;0.36;87.70
51239;BME280;38154;47.548;18.828;2023-03-16T00:53:42;98773.03;;;0.31;88.86
51239;BME280;38154;47.548;18.828;2023-03-16T00:56:09;98776.50;;;0.32;89.24
51239;BME280;38154;47.548;18.828;2023-03-16T00:58:37;98778.31;;;0.34;89.92
51239;BME280;38154;47.548;18.828;2023-03-16T01:01:04;98775.00;;;0.37;90.17
51239;BME280;38154;47.548;18.828;2023-03-16T01:03:31;98774.31;;;0.41;90.14
51239;BME280;38154;47.548;18.828;2023-03-16T01:05:57;98765.97;;;0.47;89.00
51239;BME280;38154;47.548;18.828;2023-03-16T01:08:26;98778.06;;;0.49;90.12
51239;BME280;38154;47.548;18.828;2023-03-16T01:10:55;98772.13;;;0.50;89.95
51239;BME280;38154;47.548;18.828;2023-03-16T01:13:21;98773.72;;;0.48;90.82
51239;BME280;38154;47.548;18.828;2023-03-16T01:15:49;98767.09;;;0.53;89.92
51239;BME280;38154;47.548;18.828;2023-03-16T01:18:16;98769.59;;;0.52;90.00
51239;BME280;38154;47.548;18.828;2023-03-16T01:20:41;98762.59;;;0.48;90.08
51239;BME280;38154;47.548;18.828;2023-03-16T01:23:18;98770.62;;;0.55;89.93
51239;BME280;38154;47.548;18.828;2023-03-16T01:25:44;98776.88;;;0.62;89.63
51239;BME280;38154;47.548;18.828;2023-03-16T01:28:19;98769.19;;;0.62;89.49
51239;BME280;38154;47.548;18.828;2023-03-16T01:30:45;98769.94;;;0.60;89.22
51239;BME280;38154;47.548;18.828;2023-03-16T01:33:11;98774.19;;;0.59;89.40
51239;BME280;38154;47.548;18.828;2023-03-16T01:35:37;98773.19;;;0.55;90.33
51239;BME280;38154;47.548;18.828;2023-03-16T01:38:03;98774.44;;;0.44;90.38
51239;BME280;38154;47.548;18.828;2023-03-16T01:40:29;98779.38;;;0.40;91.03
51239;BME280;38154;47.548;18.828;2023-03-16T01:43:03;98779.94;;;0.32;91.18
51239;BME280;38154;47.548;18.828;2023-03-16T01:51:27;98788.19;;;0.46;91.29
51239;BME280;38154;47.548;18.828;2023-03-16T01:54:05;98786.50;;;0.47;91.02
51239;BME280;38154;47.548;18.828;2023-03-16T01:56:37;98780.63;;;0.49;91.07
51239;BME280;38154;47.548;18.828;2023-03-16T01:59:08;98789.75;;;0.43;91.29
51239;BME280;38154;47.548;18.828;2023-03-16T02:01:35;98798.03;;;0.35;92.23
51239;BME280;38154;47.548;18.828;2023-03-16T02:04:16;98782.28;;;0.28;92.33
51239;BME280;38154;47.548;18.828;2023-03-16T02:06:48;98789.00;;;0.24;92.42
51239;BME280;38154;47.548;18.828;2023-03-16T02:09:15;98789.34;;;0.33;92.99
51239;BME280;38154;47.548;18.828;2023-03-16T02:11:43;98789.34;;;0.33;92.74
51239;BME280;38154;47.548;18.828;2023-03-16T02:14:11;98795.16;;;0.49;92.45
51239;BME280;38154;47.548;18.828;2023-03-16T02:16:38;98792.88;;;0.57;91.36
51239;BME280;38154;47.548;18.828;2023-03-16T02:19:08;98805.59;;;0.53;91.50
51239;BME280;38154;47.548;18.828;2023-03-16T02:21:51;98809.66;;;0.48;92.90
51239;BME280;38154;47.548;18.828;2023-03-16T02:24:20;98807.16;;;0.50;91.13
51239;BME280;38154;47.548;18.828;2023-03-16T02:26:53;98804.84;;;0.56;91.19
51239;BME280;38154;47.548;18.828;2023-03-16T02:32:09;98811.78;;;0.59;91.12
51239;BME280;38154;47.548;18.828;2023-03-16T02:34:36;98810.34;;;0.44;92.05
51239;BME280;38154;47.548;18.828;2023-03-16T02:37:03;98817.47;;;0.51;91.41
51239;BME280;38154;47.548;18.828;2023-03-16T02:39:29;98815.91;;;0.55;92.87
51239;BME280;38154;47.548;18.828;2023-03-16T02:41:55;98822.41;;;0.47;91.91
51239;BME280;38154;47.548;18.828;2023-03-16T02:44:25;98825.53;;;0.40;92.99
51239;BME280;38154;47.548;18.828;2023-03-16T02:46:55;98833.31;;;0.41;92.74
51239;BME280;38154;47.548;18.828;2023-03-16T02:51:52;98834.84;;;0.37;93.45
51239;BME280;38154;47.548;18.828;2023-03-16T02:54:18;98841.63;;;0.35;93.78
51239;BME280;38154;47.548;18.828;2023-03-16T02:56:44;98843.41;;;0.38;93.85
51239;BME280;38154;47.548;18.828;2023-03-16T02:59:10;98846.53;;;0.31;94.47
51239;BME280;38154;47.548;18.828;2023-03-16T03:01:36;98844.13;;;0.34;94.93
51239;BME280;38154;47.548;18.828;2023-03-16T03:04:03;98853.31;;;0.29;95.15
51239;BME280;38154;47.548;18.828;2023-03-16T03:06:29;98853.44;;;0.32;95.12
51239;BME280;38154;47.548;18.828;2023-03-16T03:08:57;98860.16;;;0.30;94.55
51239;BME280;38154;47.548;18.828;2023-03-16T03:11:23;98865.78;;;0.21;95.04
51239;BME280;38154;47.548;18.828;2023-03-16T03:13:49;98869.62;;;0.11;95.89
51239;BME280;38154;47.548;18.828;2023-03-16T03:16:15;98859.13;;;0.05;97.65
51239;BME280;38154;47.548;18.828;2023-03-16T03:18:41;98857.28;;;0.03;96.76
51239;BME280;38154;47.548;18.828;2023-03-16T03:21:07;98866.75;;;0.04;97.52
51239;BME280;38154;47.548;18.828;2023-03-16T03:23:33;98868.75;;;0.11;97.76
51239;BME280;38154;47.548;18.828;2023-03-16T03:26:02;98870.78;;;-0.02;99.02
51239;BME280;38154;47.548;18.828;2023-03-16T03:28:29;98860.78;;;0.05;98.66
51239;BME280;38154;47.548;18.828;2023-03-16T03:30:55;98873.13;;;0.13;96.66
51239;BME280;38154;47.548;18.828;2023-03-16T03:33:22;98874.69;;;0.10;99.71
51239;BME280;38154;47.548;18.828;2023-03-16T03:35:58;98877.06;;;0.05;97.91
51239;BME280;38154;47.548;18.828;2023-03-16T03:38:25;98883.78;;;0.03;97.38
51239;BME280;38154;47.548;18.828;2023-03-16T03:40:52;98881.44;;;0.08;98.03
51239;BME280;38154;47.548;18.828;2023-03-16T03:43:19;98893.78;;;0.16;96.94
51239;BME280;38154;47.548;18.828;2023-03-16T03:45:45;98899.38;;;0.08;96.96
51239;BME280;38154;47.548;18.828;2023-03-16T03:48:11;98898.66;;;0.10;97.13
51239;BME280;38154;47.548;18.828;2023-03-16T03:50:37;98904.50;;;0.08;97.49
51239;BME280;38154;47.548;18.828;2023-03-16T03:53:05;98904.72;;;0.12;97.02
51239;BME280;38154;47.548;18.828;2023-03-16T03:55:32;98905.19;;;0.04;97.05
51239;BME280;38154;47.548;18.828;2023-03-16T03:57:57;98917.94;;;0.02;98.29
51239;BME280;38154;47.548;18.828;2023-03-16T04:00:23;98921.06;;;-0.04;97.94
51239;BME280;38154;47.548;18.828;2023-03-16T04:02:49;98927.97;;;-0.03;97.97
51239;BME280;38154;47.548;18.828;2023-03-16T04:05:16;98921.22;;;-0.01;98.57
51239;BME280;38154;47.548;18.828;2023-03-16T04:07:41;98925.34;;;-0.04;98.15
51239;BME280;38154;47.548;18.828;2023-03-16T04:10:08;98937.34;;;-0.03;98.85
51239;BME280;38154;47.548;18.828;2023-03-16T04:12:34;98941.50;;;-0.05;99.16
51239;BME280;38154;47.548;18.828;2023-03-16T04:15:00;98935.59;;;-0.04;99.79
51239;BME280;38154;47.548;18.828;2023-03-16T04:17:25;98937.50;;;0.00;100.00
51239;BME280;38154;47.548;18.828;2023-03-16T04:19:51;98933.63;;;-0.10;99.53
51239;BME280;38154;47.548;18.828;2023-03-16T04:22:17;98938.84;;;-0.08;100.00
51239;BME280;38154;47.548;18.828;2023-03-16T04:24:43;98950.75;;;-0.09;98.79
51239;BME280;38154;47.548;18.828;2023-03-16T04:27:09;98959.19;;;-0.11;99.57
51239;BME280;38154;47.548;18.828;2023-03-16T04:29:38;98953.69;;;-0.19;100.00
51239;BME280;38154;47.548;18.828;2023-03-16T04:32:06;98962.84;;;-0.24;100.00
51239;BME280;38154;47.548;18.828;2023-03-16T04:34:32;98964.84;;;-0.36;100.00
51239;BME280;38154;47.548;18.828;2023-03-16T04:36:59;98957.87;;;-0.39;100.00
51239;BME280;38154;47.548;18.828;2023-03-16T04:39:24;98966.72;;;-0.50;100.00
51239;BME280;38154;47.548;18.828;2023-03-16T04:41:50;98958.09;;;-0.52;100.00
51239;BME280;38154;47.548;18.828;2023-03-16T04:44:16;98962.34;;;-0.53;100.00
51239;BME280;38154;47.548;18.828;2023-03-16T04:46:42;98962.44;;;-0.51;100.00
51239;BME280;38154;47.548;18.828;2023-03-16T04:49:08;98960.22;;;-0.62;100.00
51239;BME280;38154;47.548;18.828;2023-03-16T04:51:35;98971.19;;;-0.64;100.00
51239;BME280;38154;47.548;18.828;2023-03-16T04:54:03;98972.56;;;-0.71;100.00
51239;BME280;38154;47.548;18.828;2023-03-16T04:56:29;98977.63;;;-0.72;100.00
51239;BME280;38154;47.548;18.828;2023-03-16T04:58:55;98976.09;;;-0.69;100.00
51239;BME280;38154;47.548;18.828;2023-03-16T05:01:22;98975.59;;;-0.62;100.00
51239;BME280;38154;47.548;18.828;2023-03-16T05:03:48;98984.94;;;-0.62;100.00
51239;BME280;38154;47.548;18.828;2023-03-16T05:06:14;98980.41;;;-0.68;100.00
51239;BME280;38154;47.548;18.828;2023-03-16T05:08:40;98987.09;;;-0.53;100.00
51239;BME280;38154;47.548;18.828;2023-03-16T05:11:07;98992.56;;;-0.46;100.00
51239;BME280;38154;47.548;18.828;2023-03-16T05:13:33;98988.19;;;-0.48;100.00
51239;BME280;38154;47.548;18.828;2023-03-16T05:15:59;98990.84;;;-0.47;100.00
51239;BME280;38154;47.548;18.828;2023-03-16T05:18:25;98994.41;;;-0.43;100.00
51239;BME280;38154;47.548;18.828;2023-03-16T05:20:52;98996.47;;;-0.36;100.00
51239;BME280;38154;47.548;18.828;2023-03-16T05:23:19;99008.25;;;-0.22;100.00
51239;BME280;38154;47.548;18.828;2023-03-16T05:25:46;99003.94;;;-0.05;100.00
51239;BME280;38154;47.548;18.828;2023-03-16T05:28:11;99007.97;;;-0.10;99.89
51239;BME280;38154;47.548;18.828;2023-03-16T05:30:38;99007.50;;;-0.01;99.78
51239;BME280;38154;47.548;18.828;2023-03-16T05:33:04;99008.38;;;-0.01;99.41
51239;BME280;38154;47.548;18.828;2023-03-16T05:35:30;99003.00;;;0.13;99.23
51239;BME280;38154;47.548;18.828;2023-03-16T05:37:56;99010.75;;;0.32;99.10
51239;BME280;38154;47.548;18.828;2023-03-16T05:40:22;99009.87;;;0.51;95.94
51239;BME280;38154;47.548;18.828;2023-03-16T05:42:53;99004.63;;;0.68;94.83
51239;BME280;38154;47.548;18.828;2023-03-16T05:45:19;99014.97;;;0.89;93.71
51239;BME280;38154;47.548;18.828;2023-03-16T05:47:45;99011.28;;;1.03;93.00
51239;BME280;38154;47.548;18.828;2023-03-16T05:50:13;99019.84;;;1.02;93.63
51239;BME280;38154;47.548;18.828;2023-03-16T05:52:42;99020.00;;;1.07;94.08
51239;BME280;38154;47.548;18.828;2023-03-16T05:55:10;99024.63;;;1.14;92.99
51239;BME280;38154;47.548;18.828;2023-03-16T05:57:37;99026.56;;;1.20;93.52
51239;BME280;38154;47.548;18.828;2023-03-16T06:00:05;99030.19;;;1.25;93.15
51239;BME280;38154;47.548;18.828;2023-03-16T06:02:42;99041.94;;;1.39;91.78
51239;BME280;38154;47.548;18.828;2023-03-16T06:05:08;99038.69;;;1.64;90.57
51239;BME280;38154;47.548;18.828;2023-03-16T06:07:34;99042.47;;;1.73;90.00
51239;BME280;38154;47.548;18.828;2023-03-16T06:10:00;99053.63;;;1.96;88.80
51239;BME280;38154;47.548;18.828;2023-03-16T06:12:26;99049.78;;;2.28;86.05
51239;BME280;38154;47.548;18.828;2023-03-16T06:14:52;99052.56;;;2.34;84.90
51239;BME280;38154;47.548;18.828;2023-03-16T06:17:18;99063.09;;;2.40;84.84
51239;BME280;38154;47.548;18.828;2023-03-16T06:19:44;99059.59;;;2.61;83.73
51239;BME280;38154;47.548;18.828;2023-03-16T06:22:10;99063.06;;;3.34;80.25
51239;BME280;38154;47.548;18.828;2023-03-16T06:24:36;99063.50;;;3.72;77.42
51239;BME280;38154;47.548;18.828;2023-03-16T06:27:02;99061.41;;;3.62;76.92
51239;BME280;38154;47.548;18.828;2023-03-16T06:29:28;99067.38;;;3.59;77.30
51239;BME280;38154;47.548;18.828;2023-03-16T06:31:54;99069.00;;;3.83;75.86
51239;BME280;38154;47.548;18.828;2023-03-16T06:34:21;99071.03;;;3.66;76.38
51239;BME280;38154;47.548;18.828;2023-03-16T06:36:47;99080.03;;;3.53;77.04
51239;BME280;38154;47.548;18.828;2023-03-16T06:39:13;99081.22;;;3.63;77.27
51239;BME280;38154;47.548;18.828;2023-03-16T06:41:39;99087.28;;;3.89;76.66
51239;BME280;38154;47.548;18.828;2023-03-16T06:44:08;99100.13;;;4.42;72.91
51239;BME280;38154;47.548;18.828;2023-03-16T06:46:34;99109.87;;;5.10;70.56
51239;BME280;38154;47.548;18.828;2023-03-16T06:49:00;99104.47;;;5.98;66.40
51239;BME280;38154;47.548;18.828;2023-03-16T06:51:26;99114.03;;;6.73;62.86
51239;BME280;38154;47.548;18.828;2023-03-16T06:53:52;99122.75;;;7.64;59.72
51239;BME280;38154;47.548;18.828;2023-03-16T06:56:18;99128.00;;;8.69;55.75
51239;BME280;38154;47.548;18.828;2023-03-16T06:58:44;99124.13;;;10.86;49.38
51239;BME280;38154;47.548;18.828;2023-03-16T07:01:12;99122.81;;;12.77;44.15
51239;BME280;38154;47.548;18.828;2023-03-16T07:03:39;99120.75;;;13.64;40.67
51239;BME280;38154;47.548;18.828;2023-03-16T07:06:15;99125.19;;;14.72;37.99
51239;BME280;38154;47.548;18.828;2023-03-16T07:08:42;99133.53;;;15.10;37.51
51239;BME280;38154;47.548;18.828;2023-03-16T07:11:09;99132.47;;;15.28;36.48
51239;BME280;38154;47.548;18.828;2023-03-16T07:13:35;99142.22;;;15.18;35.60
51239;BME280;38154;47.548;18.828;2023-03-16T07:16:02;99145.94;;;15.70;36.00
51239;BME280;38154;47.548;18.828;2023-03-16T07:18:30;99155.72;;;16.24;34.13
51239;BME280;38154;47.548;18.828;2023-03-16T07:20:58;99161.25;;;16.63;33.26
51239;BME280;38154;47.548;18.828;2023-03-16T07:23:25;99155.44;;;17.39;32.10
51239;BME280;38154;47.548;18.828;2023-03-16T07:25:52;99162.19;;;17.96;31.87
51239;BME280;38154;47.548;18.828;2023-03-16T07:28:19;99161.03;;;18.08;30.79
51239;BME280;38154;47.548;18.828;2023-03-16T07:30:46;99168.84;;;18.12;30.74
51239;BME280;38154;47.548;18.828;2023-03-16T07:33:12;99166.84;;;18.24;30.06
51239;BME280;38154;47.548;18.828;2023-03-16T07:35:41;99163.94;;;17.97;30.78
51239;BME280;38154;47.548;18.828;2023-03-16T07:38:09;99174.00;;;18.54;30.52
51239;BME280;38154;47.548;18.828;2023-03-16T07:40:41;99174.69;;;18.27;30.47
51239;BME280;38154;47.548;18.828;2023-03-16T07:43:26;99184.84;;;18.44;29.78
51239;BME280;38154;47.548;18.828;2023-03-16T07:46:03;99183.50;;;18.98;28.71
51239;BME280;38154;47.548;18.828;2023-03-16T07:48:32;99183.78;;;19.20;29.07
51239;BME280;38154;47.548;18.828;2023-03-16T07:51:00;99191.56;;;19.26;28.82
51239;BME280;38154;47.548;18.828;2023-03-16T07:53:27;99188.34;;;19.48;28.16
51239;BME280;38154;47.548;18.828;2023-03-16T07:55:53;99197.47;;;19.36;28.23
51239;BME280;38154;47.548;18.828;2023-03-16T07:58:19;99197.09;;;19.17;29.60
51239;BME280;38154;47.548;18.828;2023-03-16T08:00:44;99189.28;;;19.45;28.05
51239;BME280;38154;47.548;18.828;2023-03-16T08:03:10;99186.53;;;18.84;29.61
51239;BME280;38154;47.548;18.828;2023-03-16T08:05:36;99189.97;;;18.86;28.99
51239;BME280;38154;47.548;18.828;2023-03-16T08:08:02;99191.25;;;19.05;28.92
51239;BME280;38154;47.548;18.828;2023-03-16T08:10:28;99191.88;;;18.79;29.58
51239;BME280;38154;47.548;18.828;2023-03-16T08:12:54;99191.94;;;19.12;29.05
51239;BME280;38154;47.548;18.828;2023-03-16T08:15:20;99203.28;;;19.17;28.78
51239;BME280;38154;47.548;18.828;2023-03-16T08:17:46;99202.13;;;18.93;29.01
51239;BME280;38154;47.548;18.828;2023-03-16T08:20:13;99194.28;;;19.23;28.84
51239;BME280;38154;47.548;18.828;2023-03-16T08:22:43;99199.38;;;19.31;28.72
51239;BME280;38154;47.548;18.828;2023-03-16T08:25:11;99193.91;;;19.37;28.53
51239;BME280;38154;47.548;18.828;2023-03-16T08:27:37;99197.56;;;19.33;28.28
51239;BME280;38154;47.548;18.828;2023-03-16T08:30:07;99201.22;;;18.94;29.38
51239;BME280;38154;47.548;18.828;2023-03-16T08:32:36;99200.69;;;19.14;27.78
51239;BME280;38154;47.548;18.828;2023-03-16T08:35:05;99200.37;;;19.89;27.98
51239;BME280;38154;47.548;18.828;2023-03-16T08:37:32;99202.22;;;19.23;27.30
51239;BME280;38154;47.548;18.828;2023-03-16T08:39:58;99199.03;;;18.76;27.21
51239;BME280;38154;47.548;18.828;2023-03-16T08:42:25;99208.44;;;18.87;28.14
51239;BME280;38154;47.548;18.828;2023-03-16T08:44:54;99205.69;;;18.92;28.31
51239;BME280;38154;47.548;18.828;2023-03-16T08:47:21;99204.75;;;19.27;27.89
51239;BME280;38154;47.548;18.828;2023-03-16T08:49:47;99201.56;;;19.48;28.04
51239;BME280;38154;47.548;18.828;2023-03-16T08:52:14;99207.16;;;19.35;27.89
51239;BME280;38154;47.548;18.828;2023-03-16T08:54:40;99206.59;;;19.55;26.53
51239;BME280;38154;47.548;18.828;2023-03-16T08:57:08;99200.59;;;19.50;27.38
51239;BME280;38154;47.548;18.828;2023-03-16T08:59:35;99200.09;;;19.37;27.15
51239;BME280;38154;47.548;18.828;2023-03-16T09:02:01;99209.06;;;19.94;27.84
51239;BME280;38154;47.548;18.828;2023-03-16T09:04:29;99206.78;;;19.80;26.40
51239;BME280;38154;47.548;18.828;2023-03-16T09:06:55;99206.75;;;19.82;27.28
51239;BME280;38154;47.548;18.828;2023-03-16T09:09:21;99219.78;;;19.57;26.61
51239;BME280;38154;47.548;18.828;2023-03-16T09:11:47;99223.06;;;19.67;27.78
51239;BME280;38154;47.548;18.828;2023-03-16T09:14:14;99218.19;;;19.51;27.16
51239;BME280;38154;47.548;18.828;2023-03-16T09:16:40;99221.44;;;19.92;26.22
51239;BME280;38154;47.548;18.828;2023-03-16T09:19:06;99225.66;;;20.84;26.10
51239;BME280;38154;47.548;18.828;2023-03-16T09:21:32;99231.63;;;19.76;27.49
51239;BME280;38154;47.548;18.828;2023-03-16T09:24:00;99225.84;;;19.60;26.95
51239;BME280;38154;47.548;18.828;2023-03-16T09:26:26;99221.97;;;19.09;28.72
51239;BME280;38154;47.548;18.828;2023-03-16T09:28:53;99222.50;;;19.87;26.73
51239;BME280;38154;47.548;18.828;2023-03-16T09:31:20;99228.44;;;20.25;26.14
51239;BME280;38154;47.548;18.828;2023-03-16T09:33:46;99229.38;;;19.92;26.67
51239;BME280;38154;47.548;18.828;2023-03-16T09:36:13;99230.63;;;20.10;25.48
51239;BME280;38154;47.548;18.828;2023-03-16T09:38:40;99232.53;;;19.75;25.68
51239;BME280;38154;47.548;18.828;2023-03-16T09:41:09;99240.06;;;19.25;27.44
51239;BME280;38154;47.548;18.828;2023-03-16T09:43:44;99243.72;;;18.85;26.89
51239;BME280;38154;47.548;18.828;2023-03-16T09:46:27;99234.06;;;19.51;26.08
51239;BME280;38154;47.548;18.828;2023-03-16T09:48:56;99235.34;;;19.36;25.91
51239;BME280;38154;47.548;18.828;2023-03-16T09:54:01;99230.87;;;19.71;26.10
51239;BME280;38154;47.548;18.828;2023-03-16T09:56:32;99236.09;;;19.41;26.13
51239;BME280;38154;47.548;18.828;2023-03-16T09:59:01;99231.34;;;19.21;26.23
51239;BME280;38154;47.548;18.828;2023-03-16T10:04:38;99225.47;;;20.06;25.38
51239;BME280;38154;47.548;18.828;2023-03-16T10:09:35;99224.72;;;20.00;25.76
51239;BME280;38154;47.548;18.828;2023-03-16T10:12:05;99234.00;;;20.15;24.86
51239;BME280;38154;47.548;18.828;2023-03-16T10:17:18;99221.94;;;19.44;24.19
51239;BME280;38154;47.548;18.828;2023-03-16T10:20:16;99229.19;;;19.03;25.31
51239;BME280;38154;47.548;18.828;2023-03-16T10:22:45;99233.34;;;19.77;24.74
51239;BME280;38154;47.548;18.828;2023-03-16T10:25:25;99236.25;;;19.68;23.86
51239;BME280;38154;47.548;18.828;2023-03-16T10:27:52;99237.84;;;19.42;23.86
51239;BME280;38154;47.548;18.828;2023-03-16T10:30:29;99237.63;;;19.50;24.39
51239;BME280;38154;47.548;18.828;2023-03-16T10:33:02;99232.56;;;19.72;23.82
51239;BME280;38154;47.548;18.828;2023-03-16T10:35:45;99227.81;;;19.54;23.50
51239;BME280;38154;47.548;18.828;2023-03-16T10:46:45;99244.41;;;19.27;22.46
51239;BME280;38154;47.548;18.828;2023-03-16T10:49:40;99247.88;;;19.30;21.80
51239;BME280;38154;47.548;18.828;2023-03-16T10:52:17;99239.00;;;19.63;22.33
51239;BME280;38154;47.548;18.828;2023-03-16T10:54:55;99242.97;;;20.39;20.83
51239;BME280;38154;47.548;18.828;2023-03-16T10:57:32;99245.00;;;20.31;22.87
51239;BME280;38154;47.548;18.828;2023-03-16T10:59:59;99238.91;;;19.99;21.72
51239;BME280;38154;47.548;18.828;2023-03-16T11:02:32;99232.59;;;20.04;21.37
51239;BME280;38154;47.548;18.828;2023-03-16T11:05:32;99228.94;;;20.08;22.05
51239;BME280;38154;47.548;18.828;2023-03-16T11:08:14;99229.28;;;20.53;21.18
51239;BME280;38154;47.548;18.828;2023-03-16T11:10:45;99219.59;;;20.24;21.32
51239;BME280;38154;47.548;18.828;2023-03-16T11:13:15;99228.09;;;20.06;20.70
51239;BME280;38154;47.548;18.828;2023-03-16T11:15:52;99222.72;;;20.09;21.10
51239;BME280;38154;47.548;18.828;2023-03-16T11:18:29;99213.50;;;19.92;21.04
51239;BME280;38154;47.548;18.828;2023-03-16T11:20:57;99220.28;;;19.71;20.17
51239;BME280;38154;47.548;18.828;2023-03-16T11:23:31;99225.56;;;19.40;20.57
51239;BME280;38154;47.548;18.828;2023-03-16T11:26:02;99226.00;;;18.88;20.05
51239;BME280;38154;47.548;18.828;2023-03-16T11:28:36;99222.91;;;18.71;20.21
51239;BME280;38154;47.548;18.828;2023-03-16T11:31:21;99222.06;;;19.05;21.05
51239;BME280;38154;47.548;18.828;2023-03-16T11:33:52;99217.81;;;19.65;20.88
51239;BME280;38154;47.548;18.828;2023-03-16T11:36:37;99222.19;;;19.66;20.82
51239;BME280;38154;47.548;18.828;2023-03-16T11:42:33;99208.87;;;19.38;21.06
51239;BME280;38154;47.548;18.828;2023-03-16T11:47:48;99212.81;;;18.88;19.35
51239;BME280;38154;47.548;18.828;2023-03-16T11:53:08;99204.94;;;19.20;21.42
51239;BME280;38154;47.548;18.828;2023-03-16T12:01:46;99212.72;;;18.91;19.21
51239;BME280;38154;47.548;18.828;2023-03-16T12:04:20;99204.25;;;18.04;20.10
51239;BME280;38154;47.548;18.828;2023-03-16T12:12:42;99191.97;;;18.40;21.42
51239;BME280;38154;47.548;18.828;2023-03-16T12:18:15;99186.56;;;17.65;21.53
51239;BME280;38154;47.548;18.828;2023-03-16T12:20:49;99186.41;;;17.29;22.65
51239;BME280;38154;47.548;18.828;2023-03-16T12:23:26;99188.28;;;17.22;21.71
51239;BME280;38154;47.548;18.828;2023-03-16T12:25:56;99191.13;;;17.12;20.57
51239;BME280;38154;47.548;18.828;2023-03-16T12:28:28;99186.00;;;17.02;21.90
51239;BME280;38154;47.548;18.828;2023-03-16T12:36:53;99181.03;;;16.32;23.11
51239;BME280;38154;47.548;18.828;2023-03-16T12:39:31;99192.87;;;16.02;23.67
51239;BME280;38154;47.548;18.828;2023-03-16T12:44:56;99199.16;;;16.53;22.39
51239;BME280;38154;47.548;18.828;2023-03-16T12:47:42;99201.91;;;16.43;24.62
51239;BME280;38154;47.548;18.828;2023-03-16T12:50:15;99192.00;;;16.00;22.97
51239;BME280;38154;47.548;18.828;2023-03-16T12:52:46;99195.56;;;15.21;23.71
51239;BME280;38154;47.548;18.828;2023-03-16T12:56:00;99191.19;;;15.25;22.77
51239;BME280;38154;47.548;18.828;2023-03-16T12:58:00;99189.53;;;15.15;24.31
51239;BME280;38154;47.548;18.828;2023-03-16T13:00:55;99195.28;;;14.59;23.98
51239;BME280;38154;47.548;18.828;2023-03-16T13:03:24;99195.88;;;13.62;26.07
51239;BME280;38154;47.548;18.828;2023-03-16T13:05:53;99191.66;;;13.09;27.05
51239;BME280;38154;47.548;18.828;2023-03-16T13:08:21;99189.09;;;12.53;26.53
51239;BME280;38154;47.548;18.828;2023-03-16T13:11:04;99191.69;;;12.10;27.14
51239;BME280;38154;47.548;18.828;2023-03-16T13:13:30;99192.37;;;11.63;28.04
51239;BME280;38154;47.548;18.828;2023-03-16T13:16:06;99187.91;;;11.34;28.22
51239;BME280;38154;47.548;18.828;2023-03-16T13:18:40;99184.31;;;11.13;29.17
51239;BME280;38154;47.548;18.828;2023-03-16T13:21:21;99186.94;;;11.17;29.19
51239;BME280;38154;47.548;18.828;2023-03-16T13:26:48;99180.66;;;10.87;27.81
51239;BME280;38154;47.548;18.828;2023-03-16T13:29:26;99190.91;;;10.57;28.39
51239;BME280;38154;47.548;18.828;2023-03-16T13:31:54;99185.53;;;10.39;27.00
51239;BME280;38154;47.548;18.828;2023-03-16T13:34:25;99187.16;;;10.29;28.23
51239;BME280;38154;47.548;18.828;2023-03-16T13:36:54;99186.19;;;10.19;27.25
51239;BME280;38154;47.548;18.828;2023-03-16T13:39:25;99181.81;;;10.18;26.94
51239;BME280;38154;47.548;18.828;2023-03-16T13:44:28;99177.13;;;9.83;27.06
51239;BME280;38154;47.548;18.828;2023-03-16T13:46:54;99170.22;;;9.86;29.74
51239;BME280;38154;47.548;18.828;2023-03-16T13:49:20;99175.53;;;9.95;28.43
51239;BME280;38154;47.548;18.828;2023-03-16T13:51:46;99169.34;;;9.85;29.81
51239;BME280;38154;47.548;18.828;2023-03-16T13:54:25;99166.69;;;9.82;30.31
51239;BME280;38154;47.548;18.828;2023-03-16T13:56:56;99170.28;;;9.92;31.12
51239;BME280;38154;47.548;18.828;2023-03-16T13:59:23;99162.34;;;9.79;30.06
51239;BME280;38154;47.548;18.828;2023-03-16T14:01:57;99170.91;;;9.68;30.84
51239;BME280;38154;47.548;18.828;2023-03-16T14:04:27;99167.34;;;9.61;31.14
51239;BME280;38154;47.548;18.828;2023-03-16T14:06:58;99174.28;;;9.59;31.25
51239;BME280;38154;47.548;18.828;2023-03-16T14:09:27;99178.44;;;9.44;31.25
51239;BME280;38154;47.548;18.828;2023-03-16T14:11:54;99181.03;;;9.44;29.52